Flight Track Log - Related Links

Times and Time Zones

All times are in EDT time to prevent confusion due to time zone crossing. See the UAL258 flight status page for this flight to view local times or setup timezone preferences in your user account.


Time Position Orientation Groundspeed Altitude Reporting Facility
EDT Latitude Longitude Course Direction KTS MPH feet Rate Location/Type
Tue 09:01:06 AM 41.9667 -88.0000 252° West 187 215 3,200  Level Chicago TRACON
Tue 09:02:58 AM 41.9594 -88.1525 266° West 236 272 5,700 1,931 Climbing Chicago Center
Tue 09:03:00 AM 41.8323 -88.4881 254° West  Level FlightAware Approximate
Tue 09:04:00 AM 41.7993 -88.6375 254° West  Level FlightAware Approximate
Tue 09:04:00 AM 41.9514 -88.2475 264° West 255 293 8,800  Level Chicago Center
Tue 09:05:00 AM 41.7661 -88.7867 253° West  Level FlightAware Approximate
Tue 09:05:02 AM 41.9486 -88.3425 268° West 256 295 11,700  Level Chicago Center
Tue 09:06:00 AM 41.7327 -88.9358 252° West  Level FlightAware Approximate
Tue 09:06:04 AM 41.9428 -88.4494 266° West 284 327 12,700  Level Chicago Center
Tue 09:07:06 AM 41.9006 -88.5922 248° West 339 390 15,300 2,226 Climbing Chicago Center
Tue 09:08:08 AM 41.8683 -88.7133 250° West 347 399 17,300 1,902 Climbing Chicago Center
Tue 09:09:09 AM 41.8336 -88.8408 250° West 363 418 19,200 1,805 Climbing Chicago Center
Tue 09:10:11 AM 41.7969 -88.9719 249° West 376 433 21,000 1,645 Climbing Chicago Center
Tue 09:11:13 AM 41.7611 -89.1031 250° West 379 436 22,600 1,548 Climbing Chicago Center
Tue 09:12:15 AM 41.7150 -89.2653 249° West 392 451 24,200 1,452 Climbing Chicago Center
Tue 09:13:17 AM 41.6769 -89.4039 250° West 397 457 25,600 1,258 Climbing Chicago Center
Tue 09:14:19 AM 41.6397 -89.5450 251° West 404 465 26,800 1,355 Climbing Chicago Center
Tue 09:15:21 AM 41.5994 -89.6764 248° West 410 472 28,400 1,355 Climbing Chicago Center
Tue 09:16:23 AM 41.5531 -89.8450 250° West 408 470 29,600 1,113 Climbing Chicago Center
Tue 09:17:25 AM 41.5111 -89.9883 249° West 415 478 30,700 1,065 Climbing Chicago Center
Tue 09:18:27 AM 41.4692 -90.1319 249° West 418 481 31,800 1,210 Climbing Chicago Center
Tue 09:19:29 AM 41.4292 -90.2731 249° West 412 474 33,200 1,065 Climbing Chicago Center
Tue 09:20:31 AM 41.3886 -90.4097 248° West 402 463 34,000 532 Climbing Chicago Center
Tue 09:21:33 AM 41.3400 -90.5800 249° West 412 474 34,300 387 Climbing Chicago Center
Tue 09:22:35 AM 41.3025 -90.7317 252° West 431 496 34,800 677 Climbing Chicago Center
Tue 09:23:37 AM 41.2717 -90.8817 255° West 424 488 35,700 581 Climbing Chicago Center
Tue 09:24:39 AM 41.2419 -91.0292 255° West 416 479 36,000 145 Climbing Chicago Center
Tue 09:25:41 AM 41.2122 -91.1744 255° West 411 473 36,000  Level Chicago Center
Tue 09:26:43 AM 41.1817 -91.3219 255° West 415 478 36,000  Level Chicago Center
Tue 09:27:45 AM 41.1444 -91.4975 254° West 413 475 36,000  Level Chicago Center
Tue 09:28:47 AM 41.1139 -91.6456 255° West 415 478 36,000  Level Chicago Center
Tue 09:29:49 AM 41.0869 -91.7747 255° West 413 475 36,000  Level Chicago Center
Tue 09:30:51 AM 41.0489 -91.9519 254° West 419 482 36,000  Level Chicago Center
Tue 09:31:53 AM 41.0178 -92.0992 254° West 420 483 36,000  Level Chicago Center
Tue 09:32:55 AM 40.9856 -92.2442 254° West 417 480 36,000  Level Chicago Center
Tue 09:33:57 AM 40.9539 -92.3919 254° West 420 483 36,000  Level Chicago Center
Tue 09:34:59 AM 40.9147 -92.5678 254° West 421 484 36,000  Level Chicago Center
Tue 09:36:01 AM 40.8825 -92.7136 254° West 420 483 36,000  Level Chicago Center
Tue 09:37:03 AM 40.8508 -92.8594 254° West 420 483 36,000  Level Chicago Center
Tue 09:37:24 AM 40.8375 -92.9186 253° West 420 483 36,000  Level Minneapolis Center
Tue 09:38:26 AM 40.8050 -93.0636 254° West 418 481 36,000  Level Minneapolis Center
Tue 09:39:27 AM 40.7719 -93.2097 253° West 420 483 36,000  Level Minneapolis Center
Tue 09:40:29 AM 40.7383 -93.3536 253° West 419 482 36,000  Level Minneapolis Center
Tue 09:41:30 AM 40.6994 -93.5267 254° West 417 480 36,000  Level Minneapolis Center
Tue 09:42:32 AM 40.6633 -93.6742 252° West 424 488 36,000  Level Minneapolis Center
Tue 09:43:34 AM 40.6294 -93.8214 253° West 425 489 36,000  Level Minneapolis Center
Tue 09:44:35 AM 40.5947 -93.9672 253° West 424 488 36,000  Level Minneapolis Center
Tue 09:45:37 AM 40.5656 -94.1178 256° West 428 493 36,000  Level Minneapolis Center
Tue 09:46:38 AM 40.5394 -94.2661 257° West 425 489 36,000  Level Minneapolis Center
Tue 09:47:40 AM 40.5061 -94.4461 256° West 426 490 36,000  Level Minneapolis Center
Tue 09:48:41 AM 40.4803 -94.5789 256° West 424 488 36,000  Level Minneapolis Center
Tue 09:49:43 AM 40.4522 -94.7303 256° West 425 489 36,000  Level Minneapolis Center
Tue 09:50:45 AM 40.4172 -94.9122 256° West 428 493 36,000  Level Minneapolis Center
Tue 09:51:46 AM 40.3892 -95.0636 256° West 427 491 36,000  Level Minneapolis Center
Tue 09:52:48 AM 40.3597 -95.2158 256° West 430 495 36,000  Level Minneapolis Center
Tue 09:53:49 AM 40.3294 -95.3675 255° West 430 495 36,000  Level Minneapolis Center
Tue 09:54:51 AM 40.3006 -95.5181 256° West 427 491 36,000  Level Minneapolis Center
Tue 09:55:53 AM 40.2703 -95.6717 256° West 431 496 36,000  Level Minneapolis Center
Tue 09:56:54 AM 40.2392 -95.8247 255° West 434 499 36,000  Level Minneapolis Center
Tue 09:57:56 AM 40.2094 -95.9758 256° West 431 496 36,000  Level Minneapolis Center
Tue 09:58:57 AM 40.1778 -96.1256 255° West 428 493 36,000  Level Minneapolis Center
Tue 09:59:59 AM 40.1411 -96.3097 255° West 434 499 36,000  Level Minneapolis Center
Tue 10:01:02 AM 40.1094 -96.4617 255° West 434 499 36,000  Level Minneapolis Center
Tue 10:02:04 AM 40.0778 -96.6139 255° West 433 498 36,000  Level Minneapolis Center
Tue 10:03:05 AM 40.0464 -96.7664 255° West 435 501 36,000  Level Minneapolis Center
Tue 10:04:07 AM 40.0128 -96.9186 254° West 436 502 36,000  Level Minneapolis Center
Tue 10:05:09 AM 39.9806 -97.0714 255° West 438 504 36,000  Level Minneapolis Center
Tue 10:06:10 AM 39.9483 -97.2247 255° West 437 503 36,000  Level Minneapolis Center
Tue 10:07:12 AM 39.9114 -97.3975 254° West 437 503 36,000  Level Minneapolis Center
Tue 10:08:14 AM 39.8778 -97.5500 254° West 437 503 36,000  Level Minneapolis Center
Tue 10:09:15 AM 39.8450 -97.7025 254° West 437 503 36,000  Level Minneapolis Center
Tue 10:10:17 AM 39.8106 -97.8544 254° West 437 503 36,000  Level Minneapolis Center
Tue 10:11:19 AM 39.7769 -98.0089 254° West 440 506 36,000  Level Minneapolis Center
Tue 10:12:20 AM 39.7367 -98.1897 254° West 435 501 36,000  Level Minneapolis Center
Tue 10:13:22 AM 39.7019 -98.3417 254° West 436 502 36,000  Level Minneapolis Center
Tue 10:14:24 AM 39.6678 -98.4933 254° West 437 503 36,000  Level Minneapolis Center
Tue 10:15:25 AM 39.6328 -98.6439 253° West 436 502 36,000  Level Minneapolis Center
Tue 10:15:52 AM 39.6192 -98.7047 254° West 434 499 36,000  Level Denver Center
Tue 10:16:53 AM 39.5847 -98.8550 253° West 434 499 36,000  Level Denver Center
Tue 10:17:55 AM 39.5497 -99.0050 253° West 434 499 36,000  Level Denver Center
Tue 10:18:57 AM 39.5142 -99.1564 253° West 436 502 36,000  Level Denver Center
Tue 10:19:59 AM 39.4719 -99.3383 253° West 439 505 36,000  Level Denver Center
Tue 10:21:00 AM 39.4386 -99.4764 253° West 441 507 36,000  Level Denver Center
Tue 10:22:02 AM 39.3986 -99.6467 253° West 442 509 36,000  Level Denver Center
Tue 10:23:04 AM 39.3633 -99.7908 252° West 441 507 36,000  Level Denver Center
Tue 10:24:06 AM 39.3231 -99.9592 253° West 439 505 36,000  Level Denver Center
Tue 10:25:08 AM 39.2878 -100.1039 253° West 440 506 36,000  Level Denver Center
Tue 10:26:09 AM 39.2536 -100.2492 253° West 441 507 36,000  Level Denver Center
Tue 10:27:11 AM 39.2175 -100.4183 255° West 440 506 36,000  Level Denver Center
Tue 10:28:14 AM 39.1869 -100.5678 255° West 446 513 36,000  Level Denver Center
Tue 10:29:15 AM 39.1503 -100.7372 254° West 443 510 36,000  Level Denver Center
Tue 10:30:17 AM 39.1194 -100.8828 255° West 441 507 36,000  Level Denver Center
Tue 10:31:19 AM 39.0819 -101.0522 254° West 441 507 36,000  Level Denver Center
Tue 10:32:21 AM 39.0517 -101.1994 255° West 442 509 36,000  Level Denver Center
Tue 10:33:23 AM 39.0175 -101.3544 254° West 442 509 36,000  Level Denver Center
Tue 10:34:37 AM 38.9739 -101.5486 254° West 444 511 36,000  Level Denver Center
Tue 10:35:39 AM 38.9417 -101.6944 254° West 443 510 36,000  Level Denver Center
Tue 10:36:41 AM 38.9036 -101.8653 254° West 446 513 36,000  Level Denver Center
Tue 10:37:44 AM 38.8708 -102.0111 254° West 447 514 36,000  Level Denver Center
Tue 10:38:45 AM 38.8311 -102.1811 253° West 447 514 36,000  Level Denver Center
Tue 10:39:47 AM 38.7986 -102.3283 254° West 447 514 36,000  Level Denver Center
Tue 10:40:49 AM 38.7589 -102.4992 253° West 451 519 36,000  Level Denver Center
Tue 10:41:52 AM 38.7250 -102.6447 253° West 448 516 36,000  Level Denver Center
Tue 10:42:54 AM 38.6850 -102.8158 253° West 446 513 36,000  Level Denver Center
Tue 10:43:56 AM 38.6511 -102.9606 253° West 444 511 36,000  Level Denver Center
Tue 10:44:58 AM 38.6108 -103.1289 253° West 445 512 36,000  Level Denver Center
Tue 10:46:00 AM 38.5767 -103.2744 253° West 446 513 36,000  Level Denver Center
Tue 10:47:02 AM 38.5356 -103.4411 253° West 449 517 36,000  Level Denver Center
Tue 10:48:04 AM 38.5011 -103.5875 253° West 447 514 36,000  Level Denver Center
Tue 10:49:06 AM 38.4600 -103.7564 253° West 447 514 36,000  Level Denver Center
Tue 10:50:08 AM 38.4253 -103.9000 253° West 446 513 36,000  Level Denver Center
Tue 10:51:10 AM 38.3844 -104.0689 253° West 447 514 36,000  Level Denver Center
Tue 10:52:12 AM 38.3481 -104.2128 252° West 447 514 36,000  Level Denver Center
Tue 10:53:14 AM 38.3064 -104.3806 252° West 448 516 36,000  Level Denver Center
Tue 10:54:16 AM 38.2858 -104.5294 260° West 451 519 36,000  Level Denver Center
Tue 10:55:18 AM 38.2700 -104.7069 264° West 454 522 36,000  Level Denver Center
Tue 10:56:20 AM 38.2556 -104.8592 263° West 454 522 36,000  Level Denver Center
Tue 10:57:22 AM 38.2400 -105.0364 264° West 454 522 36,000  Level Denver Center
Tue 10:58:24 AM 38.2269 -105.1881 264° West 453 521 36,000  Level Denver Center
Tue 10:59:28 AM 38.2097 -105.3644 263° West 451 519 36,000  Level Denver Center
Tue 11:00:30 AM 38.1942 -105.5175 263° West 455 524 36,000  Level Denver Center
Tue 11:01:32 AM 38.1761 -105.6956 263° West 456 525 36,000  Level Denver Center
Tue 11:02:34 AM 38.1614 -105.8467 263° West 452 520 36,000  Level Denver Center
Tue 11:03:36 AM 38.1425 -106.0242 262° West 454 522 36,000  Level Denver Center
Tue 11:04:38 AM 38.1272 -106.1772 263° West 454 522 36,000  Level Denver Center
Tue 11:05:40 AM 38.1094 -106.3375 262° West 455 524 36,000  Level Denver Center
Tue 11:06:42 AM 38.0911 -106.5136 263° West 453 521 36,000  Level Denver Center
Tue 11:07:44 AM 38.0753 -106.6619 262° West 445 512 36,000  Level Denver Center
Tue 11:08:47 AM 38.0567 -106.8344 262° West 443 510 36,000  Level Denver Center
Tue 11:09:49 AM 38.0400 -106.9831 262° West 442 509 36,000  Level Denver Center
Tue 11:10:51 AM 38.0239 -107.1322 262° West 446 513 36,000  Level Denver Center
Tue 11:11:53 AM 38.0050 -107.3039 262° West 450 518 36,000  Level Denver Center
Tue 11:12:55 AM 37.9850 -107.4756 262° West 442 509 36,000  Level Denver Center
Tue 11:13:57 AM 37.9678 -107.6244 262° West 445 512 36,000  Level Denver Center
Tue 11:14:59 AM 37.9469 -107.7981 261° West 447 514 36,000  Level Denver Center
Tue 11:16:01 AM 37.9300 -107.9469 262° West 446 513 36,000  Level Denver Center
Tue 11:17:03 AM 37.9122 -108.0933 261° West 444 511 36,000  Level Denver Center
Tue 11:18:05 AM 37.8917 -108.2683 262° West 446 513 36,000  Level Denver Center
Tue 11:19:07 AM 37.8733 -108.4147 261° West 443 510 36,000  Level Denver Center
Tue 11:20:09 AM 37.8519 -108.5861 261° West 443 510 36,000  Level Denver Center
Tue 11:21:11 AM 37.8344 -108.7314 261° West 440 506 36,000  Level Denver Center
Tue 11:22:13 AM 37.8119 -108.9014 261° West 438 504 36,000  Level Denver Center
Tue 11:23:15 AM 37.7797 -109.0450 254° West 443 510 36,000  Level Denver Center
Tue 11:24:17 AM 37.7383 -109.2136 253° West 448 516 36,000  Level Denver Center
Tue 11:25:19 AM 37.7036 -109.3564 253° West 447 514 36,000  Level Denver Center
Tue 11:26:21 AM 37.6608 -109.5242 252° West 450 518 36,000  Level Denver Center
Tue 11:27:23 AM 37.6247 -109.6675 252° West 449 517 36,000 -290 Level Denver Center
Tue 11:28:25 AM 37.5825 -109.8339 252° West 447 514 35,400 -726 Descending Denver Center
Tue 11:29:27 AM 37.5456 -109.9789 252° West 453 521 34,500 -1,016 Descending Denver Center
Tue 11:30:29 AM 37.5031 -110.1461 252° West 450 518 33,300 -1,210 Descending Denver Center
Tue 11:31:31 AM 37.4692 -110.2747 252° West 440 506 32,000 -629 Descending Denver Center
Tue 11:32:33 AM 37.4250 -110.4497 252° West 438 504 32,000  Level Denver Center
Tue 11:33:35 AM 37.3864 -110.5936 251° West 434 499 32,000  Level Denver Center
Tue 11:34:37 AM 37.3469 -110.7431 252° West 446 513 32,000  Level Denver Center
Tue 11:35:39 AM 37.3069 -110.8911 251° West 448 516 32,000  Level Denver Center
Tue 11:36:42 AM 37.2675 -111.0408 252° West 453 521 32,000  Level Denver Center
Tue 11:37:44 AM 37.2281 -111.1897 252° West 450 518 32,000  Level Denver Center
Tue 11:38:46 AM 37.1783 -111.3689 251° West 454 522 32,000  Level Denver Center
Tue 11:39:47 AM 37.1392 -111.5169 252° West 448 516 32,000  Level Denver Center
Tue 11:40:49 AM 37.1028 -111.6644 253° West 444 511 32,000  Level Denver Center
Tue 11:41:51 AM 37.0622 -111.8133 251° West 448 516 32,000 -96 Level Denver Center
Tue 11:42:54 AM 37.0294 -111.9683 255° West 457 526 31,800 -528 Descending Denver Center
Tue 11:43:56 AM 36.9989 -112.1203 256° West 452 520 30,900 -968 Descending Denver Center
Tue 11:44:27 AM 36.9772 -112.2122 254° West 453 521 30,300 -1,032 Descending Los Angeles Center
Tue 11:45:29 AM 36.9467 -112.3647 256° West 451 519 29,300 -968 Descending Los Angeles Center
Tue 11:46:31 AM 36.9150 -112.5133 255° West 446 513 28,300 -968 Descending Los Angeles Center
Tue 11:47:33 AM 36.8847 -112.6619 256° West 442 509 27,300 -968 Descending Los Angeles Center
Tue 11:48:35 AM 36.8533 -112.8053 255° West 432 497 26,300 -1,016 Descending Los Angeles Center
Tue 11:49:37 AM 36.8175 -112.9764 255° West 425 489 25,200 -1,008 Descending Los Angeles Center
Tue 11:50:40 AM 36.7869 -113.1144 255° West 415 478 24,200 -912 Descending Los Angeles Center
Tue 11:51:42 AM 36.7583 -113.2525 256° West 411 473 23,300 -919 Descending Los Angeles Center
Tue 11:52:44 AM 36.7289 -113.3861 255° West 402 463 22,300 -968 Descending Los Angeles Center
Tue 11:53:46 AM 36.7000 -113.5186 255° West 397 457 21,300 -968 Descending Los Angeles Center
Tue 11:54:48 AM 36.6703 -113.6486 254° West 392 451 20,300 -1,016 Descending Los Angeles Center
Tue 11:55:50 AM 36.6372 -113.8006 255° West 381 438 19,200 -1,016 Descending Los Angeles Center
Tue 11:56:52 AM 36.6039 -113.9206 251° West 371 427 18,200 -1,016 Descending Los Angeles Center
Tue 11:57:54 AM 36.5594 -114.0314 243° Southwest 361 415 17,100 -968 Descending Los Angeles Center
Tue 11:58:56 AM 36.5208 -114.1400 246° West 349 402 16,200 -1,012 Descending Los Angeles Center
Tue 11:59:17 AM 36.5081 -114.1864 251° West 350 403 15,700 -1,355 Descending Los Angeles Center
Tue 11:59:58 AM 36.4817 -114.2428 240° Southwest 342 394 14,800 -1,748 Descending Los Angeles Center
Tue 12:01:00 PM 36.4369 -114.3678 246° West 332 382 12,700 -1,355 Descending Los Angeles Center
Tue 12:02:02 PM 36.4000 -114.4647 245° Southwest 312 359 12,000 -738 Descending Los Angeles Center
Tue 12:03:02 PM 36.3564 -114.5544 239° Southwest 300 345 11,200 -887 Descending Los Angeles Center
Tue 12:03:57 PM 36.3133 -114.6331 236° Southwest 295 339 10,300 -898 Descending Los Angeles Center
Tue 12:05:09 PM 36.2642 -114.7178 234° Southwest 290 334 9,300 -885 Descending Los Angeles Center
Tue 12:05:59 PM 36.2233 -114.7942 236° Southwest 283 326 8,500 -919 Descending Los Angeles Center
Tue 12:07:00 PM 36.1772 -114.8789 236° Southwest 279 321 7,600 -750 Descending Los Angeles Center
Tue 12:08:15 PM 36.1308 -114.9658 237° Southwest 268 308 6,800 -787 Descending Los Angeles Center
Tue 12:09:02 PM 36.1369 -115.0308 277° West 225 259 6,000 -1,065 Descending Los Angeles Center
Tue 12:09:17 PM 36.1375 -115.0414 274° West 238 274 5,700 -1,200 Descending Los Angeles Center

Login

Don't have an account? Register now (free) for customized features, flight alerts, and more!